Time;durP1;ratioP1;P1;durP2;ratioP2;P2;SDS_P1;SDS_P2;PMS_P1;PMS_P2;Temp;Humidity;BMP_temperature;BMP_pressure;BME280_temperature;BME280_humidity;BME280_pressure;Samples;Min_cycle;Max_cycle;Signal;HPM_P1;HPM_P2
2022/07/18 00:00:26;;;;;;;9.00;2.40;;;;;;;12.89;98.55;100562.36;104865;1271;67036;-73
2022/07/18 00:03:14;;;;;;;10.20;2.60;;;;;;;12.90;98.95;100561.71;104864;1271;72479;-73
2022/07/18 00:06:02;;;;;;;8.20;2.30;;;;;;;12.91;98.86;100557.19;104925;1271;60440;-74
2022/07/18 00:08:50;;;;;;;9.10;2.20;;;;;;;12.92;99.09;100558.70;104918;1271;60458;-72
2022/07/18 00:11:38;;;;;;;9.80;2.50;;;;;;;12.94;99.08;100562.69;104989;1271;72825;-73
2022/07/18 00:14:27;;;;;;;11.10;2.40;;;;;;;12.96;99.42;100561.10;105137;1271;68851;-74
2022/07/18 00:17:14;;;;;;;8.50;2.30;;;;;;;12.98;98.99;100561.67;105246;1272;73150;-74
2022/07/18 00:20:07;;;;;;;10.10;2.30;;;;;;;12.98;99.50;100562.89;104887;1271;60495;-74
2022/07/18 00:22:55;;;;;;;10.80;2.50;;;;;;;13.00;99.76;100559.34;104891;1271;62044;-73
2022/07/18 00:25:43;;;;;;;8.90;2.30;;;;;;;13.01;99.31;100559.30;104909;1272;74425;-74
2022/07/18 00:28:32;;;;;;;10.80;2.90;;;;;;;12.98;99.56;100550.46;104825;1271;67821;-73
2022/07/18 00:31:20;;;;;;;11.50;3.00;;;;;;;13.02;99.29;100560.43;104918;1271;73367;-74
2022/07/18 00:34:08;;;;;;;10.60;2.60;;;;;;;13.03;99.51;100558.20;105058;1274;61987;-72
2022/07/18 00:36:56;;;;;;;10.00;2.40;;;;;;;13.03;99.42;100562.88;104835;1272;60616;-74
2022/07/18 00:39:44;;;;;;;10.70;2.70;;;;;;;13.03;99.26;100561.27;104837;1271;75508;-73
2022/07/18 00:42:33;;;;;;;7.50;2.40;;;;;;;13.03;99.74;100561.80;105158;1271;69489;-74
2022/07/18 00:45:21;;;;;;;9.30;2.30;;;;;;;13.02;99.38;100561.86;104926;1272;73874;-76
2022/07/18 00:48:12;;;;;;;11.50;2.90;;;;;;;13.02;99.63;100559.91;104796;1271;61052;-75
2022/07/18 00:51:01;;;;;;;9.60;2.60;;;;;;;13.02;99.98;100557.08;105006;1271;60362;-76
2022/07/18 00:53:50;;;;;;;8.00;2.30;;;;;;;13.02;100.00;100551.77;104856;1272;74267;-75
2022/07/18 00:56:40;;;;;;;10.20;2.60;;;;;;;13.02;100.00;100556.15;104757;1272;68031;-76
2022/07/18 01:02:35;;;;;;;8.60;2.80;;;;;;;13.04;100.00;100553.36;105028;1271;60444;-75
2022/07/18 01:05:24;;;;;;;8.80;2.60;;;;;;;13.05;100.00;100552.23;104760;1272;62314;-73
2022/07/18 01:08:12;;;;;;;12.10;2.80;;;;;;;13.04;100.00;100552.45;105265;1272;74172;-75
2022/07/18 01:11:00;;;;;;;9.60;2.40;;;;;;;13.05;100.00;100547.71;104925;1271;65623;-74
2022/07/18 01:13:50;;;;;;;7.50;2.20;;;;;;;13.05;100.00;100548.48;104887;1271;72193;-73
2022/07/18 01:16:38;;;;;;;10.50;2.70;;;;;;;13.04;100.00;100554.21;104901;1274;60570;-75
2022/07/18 01:19:26;;;;;;;9.20;2.40;;;;;;;13.03;100.00;100550.73;104923;1272;61114;-73
2022/07/18 01:22:18;;;;;;;9.50;2.50;;;;;;;13.04;100.00;100546.92;105056;1272;73242;-73
2022/07/18 01:25:08;;;;;;;13.40;3.20;;;;;;;13.04;100.00;100544.08;105000;1272;66615;-74
2022/07/18 01:27:57;;;;;;;11.20;2.50;;;;;;;13.05;100.00;100543.80;104924;1271;73434;-75
2022/07/18 01:30:45;;;;;;;11.00;2.60;;;;;;;13.07;100.00;100543.45;105042;1271;60542;-74
2022/07/18 01:33:34;;;;;;;13.30;3.40;;;;;;;13.09;100.00;100542.62;104910;1271;60474;-75
2022/07/18 01:36:25;;;;;;;10.50;2.80;;;;;;;13.10;100.00;100543.53;104975;1271;74728;-77
2022/07/18 01:39:13;;;;;;;10.70;2.70;;;;;;;13.11;100.00;100544.01;104942;1271;69392;-74
2022/07/18 01:42:09;;;;;;;8.20;2.10;;;;;;;13.12;100.00;100545.20;105056;1271;72094;-75
2022/07/18 01:44:57;;;;;;;6.80;2.00;;;;;;;13.12;100.00;100543.61;105115;1271;60855;-75
2022/07/18 01:47:45;;;;;;;7.50;2.20;;;;;;;13.13;100.00;100547.48;105621;1271;60471;-74
2022/07/18 01:50:33;;;;;;;9.60;2.60;;;;;;;13.10;100.00;100537.91;107124;1271;75802;-74
2022/07/18 01:53:24;;;;;;;11.20;2.40;;;;;;;13.15;100.00;100546.92;104975;1271;68380;-76
2022/07/18 01:56:12;;;;;;;10.40;2.90;;;;;;;13.16;100.00;100544.17;104970;1271;73274;-73
2022/07/18 01:59:02;;;;;;;10.10;3.00;;;;;;;13.16;100.00;100546.52;104934;1271;60571;-74
2022/07/18 02:01:51;;;;;;;8.40;2.20;;;;;;;13.16;100.00;100550.41;104935;1271;60330;-73
2022/07/18 02:07:46;;;;;;;8.60;2.30;;;;;;;13.15;100.00;100548.73;104881;1271;67194;-74
2022/07/18 02:10:34;;;;;;;10.30;2.50;;;;;;;13.15;100.00;100550.73;105031;1271;71661;-72
2022/07/18 02:13:24;;;;;;;9.00;2.50;;;;;;;13.15;100.00;100546.23;105031;1272;60538;-72
2022/07/18 02:16:12;;;;;;;8.90;2.40;;;;;;;13.16;100.00;100545.25;104906;1271;60471;-73
2022/07/18 02:19:01;;;;;;;10.40;2.60;;;;;;;13.17;100.00;100547.53;104974;1270;73653;-75
2022/07/18 02:21:48;;;;;;;10.50;3.00;;;;;;;13.17;100.00;100544.80;105296;1271;66630;-73
2022/07/18 02:24:37;;;;;;;12.50;2.80;;;;;;;13.19;100.00;100546.78;104918;1271;72967;-76
2022/07/18 02:27:25;;;;;;;6.70;2.30;;;;;;;13.19;100.00;100538.20;104908;1274;60461;-75
2022/07/18 02:30:14;;;;;;;8.60;2.50;;;;;;;13.20;100.00;100539.75;105090;1272;60450;-73
2022/07/18 02:33:02;;;;;;;9.30;2.70;;;;;;;13.19;100.00;100543.20;105000;1271;74398;-74
2022/07/18 02:35:51;;;;;;;8.30;3.30;;;;;;;13.18;100.00;100543.63;104943;1271;67468;-75
2022/07/18 02:38:39;;;;;;;9.90;2.80;;;;;;;13.19;100.00;100543.27;104912;1271;74638;-73
2022/07/18 02:41:27;;;;;;;11.30;2.90;;;;;;;13.17;100.00;100539.09;105076;1271;60461;-74
2022/07/18 02:44:17;;;;;;;8.90;2.60;;;;;;;13.18;100.00;100541.67;105052;1271;61798;-76
2022/07/18 02:47:05;;;;;;;9.20;2.60;;;;;;;13.21;100.00;100542.35;105038;1271;73728;-74
2022/07/18 02:49:53;;;;;;;9.10;2.90;;;;;;;13.22;100.00;100541.73;105103;1271;67871;-75
2022/07/18 02:52:42;;;;;;;10.50;2.70;;;;;;;13.24;100.00;100541.90;104982;1271;72306;-74
2022/07/18 02:55:30;;;;;;;13.40;2.90;;;;;;;13.26;100.00;100537.67;105115;1271;60471;-73
2022/07/18 02:58:18;;;;;;;8.40;3.00;;;;;;;13.26;100.00;100536.44;105028;1271;60387;-73
2022/07/18 03:01:06;;;;;;;10.80;2.90;;;;;;;13.31;100.00;100543.13;105657;1271;74121;-73
2022/07/18 03:03:54;;;;;;;7.60;2.90;;;;;;;13.34;100.00;100539.73;104931;1271;68342;-75
2022/07/18 03:06:43;;;;;;;12.60;3.20;;;;;;;13.37;100.00;100541.76;105178;1272;71400;-75
2022/07/18 03:09:31;;;;;;;10.00;3.00;;;;;;;13.42;100.00;100541.95;105050;1272;60521;-76
2022/07/18 03:12:19;;;;;;;10.50;3.10;;;;;;;13.47;100.00;100541.68;105046;1271;60559;-77
2022/07/18 03:15:08;;;;;;;7.80;2.80;;;;;;;13.52;100.00;100543.05;104736;1273;75761;-75
2022/07/18 03:17:56;;;;;;;11.20;2.80;;;;;;;13.58;100.00;100542.21;105301;1271;68678;-76
2022/07/18 03:20:44;;;;;;;8.90;2.80;;;;;;;13.64;100.00;100542.79;104859;1271;70351;-77
2022/07/18 03:23:32;;;;;;;8.60;2.80;;;;;;;13.71;100.00;100537.61;105098;1271;60590;-75
2022/07/18 03:26:21;;;;;;;10.30;3.00;;;;;;;13.76;100.00;100539.65;105067;1272;62253;-76
2022/07/18 03:29:11;;;;;;;8.00;2.70;;;;;;;13.83;100.00;100541.63;104950;1272;74298;-74
2022/07/18 03:31:59;;;;;;;9.10;3.10;;;;;;;13.88;100.00;100546.89;105195;1271;70044;-76
2022/07/18 03:34:50;;;;;;;8.60;2.80;;;;;;;13.92;100.00;100543.64;105085;1272;72699;-75
2022/07/18 03:37:38;;;;;;;8.20;3.00;;;;;;;13.98;100.00;100544.41;105132;1271;60549;-74
2022/07/18 03:40:26;;;;;;;8.20;2.50;;;;;;;14.03;100.00;100540.81;105043;1271;60519;-75
2022/07/18 03:43:14;;;;;;;13.00;3.00;;;;;;;14.08;100.00;100541.63;104955;1271;74166;-76
2022/07/18 03:46:02;;;;;;;9.30;2.60;;;;;;;14.13;100.00;100541.73;105277;1271;68325;-75
2022/07/18 03:48:50;;;;;;;11.90;2.80;;;;;;;14.20;100.00;100542.80;105287;1271;71464;-74
2022/07/18 03:51:38;;;;;;;8.30;2.40;;;;;;;14.25;100.00;100537.15;105252;1271;60463;-76
2022/07/18 03:54:26;;;;;;;10.80;2.70;;;;;;;14.32;100.00;100539.05;105118;1271;62038;-76
2022/07/18 03:57:14;;;;;;;9.10;2.70;;;;;;;14.37;100.00;100540.61;105568;1271;75481;-75
2022/07/18 04:00:08;;;;;;;9.20;2.60;;;;;;;14.42;100.00;100541.39;105169;1271;68985;-75
2022/07/18 04:02:59;;;;;;;10.40;2.50;;;;;;;14.49;100.00;100545.61;105135;1271;72787;-76
2022/07/18 04:05:52;;;;;;;10.20;2.90;;;;;;;14.55;99.98;100544.55;105067;1271;60572;-76
2022/07/18 04:08:40;;;;;;;8.90;2.40;;;;;;;14.62;99.81;100544.11;105164;1271;60495;-77
2022/07/18 04:11:28;;;;;;;8.50;2.50;;;;;;;14.68;99.84;100539.01;105251;1271;74315;-76
2022/07/18 04:14:16;;;;;;;10.10;2.40;;;;;;;14.74;99.20;100537.39;104982;1271;66519;-76
2022/07/18 04:17:04;;;;;;;11.40;2.90;;;;;;;14.83;99.01;100536.64;105247;1271;73135;-76
2022/07/18 04:19:52;;;;;;;9.80;2.50;;;;;;;14.90;98.75;100534.41;105025;1271;61057;-75
2022/07/18 04:22:53;;;;;;;11.30;3.00;;;;;;;14.98;98.25;100539.27;105110;1271;60376;-76
2022/07/18 04:25:42;;;;;;;6.90;2.50;;;;;;;15.03;97.60;100538.63;105309;1271;72903;-76
2022/07/18 04:28:31;;;;;;;9.50;2.60;;;;;;;15.09;97.37;100538.27;104887;1272;67755;-76
2022/07/18 04:31:19;;;;;;;8.90;2.60;;;;;;;15.14;97.42;100534.98;104994;1271;72938;-76
2022/07/18 04:34:06;;;;;;;7.80;2.80;;;;;;;15.18;97.26;100537.14;105114;1271;60474;-74
2022/07/18 04:36:54;;;;;;;8.40;2.60;;;;;;;15.22;96.98;100538.39;105192;1271;60486;-75
2022/07/18 04:39:42;;;;;;;7.40;2.20;;;;;;;15.28;97.16;100538.95;105063;1271;74053;-77
2022/07/18 04:42:30;;;;;;;9.30;2.60;;;;;;;15.30;96.38;100535.48;104835;1272;68721;-75
2022/07/18 04:45:21;;;;;;;9.50;2.80;;;;;;;15.35;96.41;100541.35;105229;1271;72952;-75
2022/07/18 04:48:10;;;;;;;8.40;2.50;;;;;;;15.38;96.48;100538.91;104993;1271;60971;-74
2022/07/18 04:50:58;;;;;;;10.50;2.90;;;;;;;15.44;96.18;100538.74;104821;1271;61166;-73
2022/07/18 04:53:48;;;;;;;13.50;3.20;;;;;;;15.51;96.11;100543.27;105250;1272;75459;-74
2022/07/18 04:56:36;;;;;;;10.20;3.10;;;;;;;15.57;95.72;100544.30;105106;1271;68301;-76
2022/07/18 04:59:24;;;;;;;10.20;2.70;;;;;;;15.68;95.50;100535.48;105332;1271;72963;-74
2022/07/18 05:02:13;;;;;;;10.60;2.40;;;;;;;15.78;94.92;100540.63;104907;1272;60719;-76
2022/07/18 05:05:01;;;;;;;6.90;2.50;;;;;;;15.87;94.43;100539.63;105134;1271;60454;-80
2022/07/18 05:07:49;;;;;;;11.20;3.00;;;;;;;15.99;93.85;100542.82;105112;1271;74101;-79
2022/07/18 05:10:38;;;;;;;9.80;3.00;;;;;;;16.15;93.46;100542.45;105150;1271;69731;-78
2022/07/18 05:13:26;;;;;;;10.60;3.10;;;;;;;16.34;92.55;100537.63;105130;1271;72862;-78
2022/07/18 05:16:14;;;;;;;10.90;2.90;;;;;;;16.60;91.72;100544.63;105380;1271;60482;-78
2022/07/18 05:19:02;;;;;;;13.30;3.40;;;;;;;16.86;90.49;100546.63;105306;1271;60456;-78
2022/07/18 05:21:50;;;;;;;8.20;2.70;;;;;;;17.14;89.48;100548.96;105503;1271;75443;-79
2022/07/18 05:24:38;;;;;;;9.40;3.00;;;;;;;17.35;87.34;100547.64;105954;1271;67378;-76
2022/07/18 05:27:26;;;;;;;10.70;3.60;;;;;;;17.46;86.17;100546.91;105454;1271;72620;-75
2022/07/18 05:30:15;;;;;;;10.00;2.70;;;;;;;17.53;85.71;100551.49;105345;1271;60542;-76
2022/07/18 05:33:03;;;;;;;8.50;3.00;;;;;;;17.59;85.13;100554.77;105363;1271;61307;-75
2022/07/18 05:35:52;;;;;;;8.30;2.40;;;;;;;17.63;85.04;100555.48;105357;1271;74121;-75
2022/07/18 05:38:40;;;;;;;10.20;3.00;;;;;;;17.68;84.39;100555.27;105634;1271;69815;-74
2022/07/18 05:41:28;;;;;;;8.90;2.80;;;;;;;17.67;83.83;100549.52;105127;1271;72606;-78
2022/07/18 05:44:16;;;;;;;7.60;2.80;;;;;;;17.72;84.11;100542.41;105488;1271;60603;-75
2022/07/18 05:47:04;;;;;;;9.30;2.90;;;;;;;17.81;83.97;100536.83;105323;1271;60431;-76
2022/07/18 05:49:52;;;;;;;9.50;3.10;;;;;;;17.94;83.21;100536.55;105127;1271;73932;-75
2022/07/18 05:52:40;;;;;;;10.40;2.70;;;;;;;18.06;82.49;100544.05;105218;1271;67971;-79
2022/07/18 05:55:28;;;;;;;9.60;3.00;;;;;;;18.12;81.76;100540.19;105289;1271;73609;-77
2022/07/18 05:58:16;;;;;;;8.30;2.40;;;;;;;18.17;81.21;100540.20;105093;1271;60500;-78
2022/07/18 06:01:04;;;;;;;8.40;2.40;;;;;;;18.19;80.95;100533.55;105768;1271;60623;-78
2022/07/18 06:03:53;;;;;;;7.60;2.60;;;;;;;18.16;80.79;100532.20;105667;1271;74020;-76
2022/07/18 06:06:41;;;;;;;9.40;2.70;;;;;;;18.15;80.53;100538.42;105711;1271;66536;-76
2022/07/18 06:09:30;;;;;;;8.30;2.20;;;;;;;18.13;80.95;100535.62;105626;1271;72591;-75
2022/07/18 06:12:18;;;;;;;10.50;2.60;;;;;;;18.17;81.22;100535.31;105510;1271;60491;-76
2022/07/18 06:15:07;;;;;;;8.70;2.40;;;;;;;18.29;80.27;100533.38;105398;1271;61723;-76
2022/07/18 06:17:55;;;;;;;8.80;2.50;;;;;;;18.47;80.04;100533.23;104969;1272;73793;-77
2022/07/18 06:20:43;;;;;;;10.10;2.70;;;;;;;18.60;79.13;100535.05;105149;1271;68147;-78
2022/07/18 06:23:31;;;;;;;10.30;2.50;;;;;;;18.59;78.65;100540.05;105482;1271;73858;-79
2022/07/18 06:26:19;;;;;;;9.90;2.40;;;;;;;18.72;79.15;100537.54;105137;1271;60488;-78
2022/07/18 06:29:07;;;;;;;10.70;3.00;;;;;;;18.88;78.10;100538.13;105277;1271;60440;-79
2022/07/18 06:31:55;;;;;;;8.40;2.90;;;;;;;18.95;77.24;100540.29;105506;1271;73927;-78
2022/07/18 06:34:43;;;;;;;9.60;2.80;;;;;;;18.92;76.89;100536.48;105275;1271;68145;-78
2022/07/18 06:37:32;;;;;;;9.10;2.90;;;;;;;18.85;76.99;100536.39;105607;1271;73352;-78
2022/07/18 06:40:20;;;;;;;12.20;5.30;;;;;;;18.81;77.37;100534.38;105429;1271;60487;-76
2022/07/18 06:43:18;;;;;;;8.20;2.70;;;;;;;18.78;77.09;100534.69;105297;1271;60474;-77
2022/07/18 06:46:06;;;;;;;11.10;3.00;;;;;;;18.69;77.02;100534.84;105295;1271;73942;-79
2022/07/18 06:48:54;;;;;;;11.40;2.90;;;;;;;18.64;77.71;100538.64;105250;1271;69565;-78
2022/07/18 06:51:43;;;;;;;8.90;2.40;;;;;;;18.60;77.95;100537.02;105155;1271;74404;-77
2022/07/18 06:54:33;;;;;;;7.80;2.60;;;;;;;18.53;77.79;100536.34;105094;1271;60469;-78
2022/07/18 06:57:21;;;;;;;8.80;2.90;;;;;;;18.49;77.99;100532.11;105373;1271;60447;-75
2022/07/18 07:00:13;;;;;;;8.90;2.70;;;;;;;18.46;77.90;100531.42;105083;1271;74306;-74
2022/07/18 07:03:01;;;;;;;7.80;2.40;;;;;;;18.44;78.17;100530.48;104948;1271;69268;-77
2022/07/18 07:05:49;;;;;;;11.30;3.00;;;;;;;18.44;78.13;100530.84;105152;1271;71649;-77
2022/07/18 07:08:37;;;;;;;8.50;2.50;;;;;;;18.48;78.40;100532.04;105098;1271;60510;-75
2022/07/18 07:11:25;;;;;;;7.80;2.30;;;;;;;18.55;78.53;100531.67;105096;1271;60441;-76
2022/07/18 07:14:13;;;;;;;8.80;2.50;;;;;;;18.58;77.79;100532.77;105203;1274;73895;-76
2022/07/18 07:17:02;;;;;;;8.10;2.30;;;;;;;18.54;77.66;100532.23;105251;1271;67950;-75
2022/07/18 07:19:50;;;;;;;8.70;2.60;;;;;;;18.51;77.67;100529.91;105085;1271;74837;-76
2022/07/18 07:22:55;;;;;;;9.00;2.70;;;;;;;18.49;78.02;100535.65;105066;1271;60462;-75
2022/07/18 07:25:44;;;;;;;9.30;2.80;;;;;;;18.48;78.01;100534.03;105204;1271;60465;-76
2022/07/18 07:28:31;;;;;;;8.90;2.70;;;;;;;18.41;77.81;100531.70;105089;1271;71528;-76
2022/07/18 07:31:19;;;;;;;8.50;3.10;;;;;;;18.34;78.19;100540.41;105349;1271;67228;-76
2022/07/18 07:34:09;;;;;;;9.90;2.70;;;;;;;18.27;78.47;100537.39;105394;1271;73491;-76
2022/07/18 07:36:57;;;;;;;7.50;2.60;;;;;;;18.17;78.73;100534.30;104857;1271;60464;-77
2022/07/18 07:39:46;;;;;;;9.30;2.70;;;;;;;18.15;78.95;100545.20;105266;1271;60357;-76
2022/07/18 07:42:34;;;;;;;8.70;2.40;;;;;;;18.15;79.15;100547.39;105120;1271;74575;-76
2022/07/18 07:45:22;;;;;;;9.50;3.00;;;;;;;18.17;79.32;100543.59;105305;1271;69043;-77
2022/07/18 07:48:10;;;;;;;8.10;2.50;;;;;;;18.19;79.11;100544.70;105189;1271;73451;-76
2022/07/18 07:50:58;;;;;;;8.00;2.50;;;;;;;18.25;78.97;100546.21;105070;1271;60577;-75
2022/07/18 07:53:46;;;;;;;10.00;2.60;;;;;;;18.42;79.11;100543.03;105228;1271;60626;-78
2022/07/18 07:56:34;;;;;;;7.10;2.60;;;;;;;18.66;78.25;100546.66;105091;1271;72825;-73
2022/07/18 07:59:22;;;;;;;9.60;2.40;;;;;;;18.92;76.43;100548.35;104620;1278;69133;-76
2022/07/18 08:02:10;;;;;;;7.90;2.20;;;;;;;19.11;74.66;100547.93;104857;1277;72999;-79
2022/07/18 08:04:58;;;;;;;8.90;2.40;;;;;;;19.18;73.63;100547.02;104866;1276;60570;-77
2022/07/18 08:07:47;;;;;;;9.90;2.50;;;;;;;19.19;72.85;100549.90;104955;1276;60657;-78
2022/07/18 08:10:35;;;;;;;9.60;2.40;;;;;;;19.24;73.29;100549.63;104847;1276;75624;-76
2022/07/18 08:13:30;;;;;;;9.30;2.00;;;;;;;19.34;72.97;100551.17;104851;1277;68267;-77
2022/07/18 08:16:19;;;;;;;7.90;2.50;;;;;;;19.41;72.87;100552.98;105513;1277;74206;-77
2022/07/18 08:19:08;;;;;;;7.30;2.20;;;;;;;19.44;72.35;100553.26;105629;1277;60551;-78
2022/07/18 08:21:56;;;;;;;8.80;2.30;;;;;;;19.37;71.84;100554.88;105209;1277;60447;-76
2022/07/18 08:24:44;;;;;;;7.10;2.30;;;;;;;19.27;72.27;100558.60;104883;1277;74011;-77
2022/07/18 08:27:32;;;;;;;9.20;2.50;;;;;;;19.20;72.47;100556.84;104827;1277;67821;-75
2022/07/18 08:30:21;;;;;;;7.50;2.10;;;;;;;19.08;72.53;100559.42;104850;1271;71419;-74
2022/07/18 08:33:10;;;;;;;8.20;2.40;;;;;;;18.90;73.36;100563.95;104940;1271;60912;-74
2022/07/18 08:35:58;;;;;;;7.70;2.30;;;;;;;18.73;74.25;100558.83;104972;1271;61044;-75
2022/07/18 08:38:46;;;;;;;8.60;2.20;;;;;;;18.65;74.72;100558.92;105044;1272;75306;-77
2022/07/18 08:41:37;;;;;;;9.10;3.40;;;;;;;18.66;74.83;100557.27;105096;1271;66811;-76
2022/07/18 08:44:29;;;;;;;7.10;2.60;;;;;;;18.64;74.87;100560.54;105089;1271;71471;-75
2022/07/18 08:47:18;;;;;;;9.00;2.80;;;;;;;18.51;75.60;100562.02;105429;1271;60462;-75
2022/07/18 08:50:07;;;;;;;10.10;2.30;;;;;;;18.47;76.35;100565.04;105083;1274;60476;-75
2022/07/18 08:52:56;;;;;;;8.00;2.40;;;;;;;18.43;77.27;100564.11;105490;1271;73993;-76
2022/07/18 08:55:45;;;;;;;8.60;2.50;;;;;;;18.52;77.87;100561.98;105196;1271;68051;-74
2022/07/18 08:58:36;;;;;;;7.50;2.40;;;;;;;18.74;77.01;100563.76;105464;1271;72851;-76
2022/07/18 09:01:34;;;;;;;8.00;2.20;;;;;;;18.91;76.57;100559.39;105451;1271;60562;-77
2022/07/18 09:04:44;;;;;;;7.70;2.20;;;;;;;19.12;75.81;100554.31;105444;1271;60924;-75
2022/07/18 09:07:34;;;;;;;7.50;2.30;;;;;;;19.56;74.45;100552.45;105387;1271;73743;-76
2022/07/18 09:10:22;;;;;;;7.40;2.30;;;;;;;20.13;72.07;100551.38;105139;1271;70301;-76
2022/07/18 09:13:10;;;;;;;9.00;2.10;;;;;;;20.61;69.15;100550.52;105031;1271;71385;-76
2022/07/18 09:16:04;;;;;;;8.80;2.30;;;;;;;20.75;68.48;100549.48;104990;1271;60413;-76
2022/07/18 09:18:52;;;;;;;7.40;2.20;;;;;;;20.96;66.92;100550.23;105099;1271;60577;-73
2022/07/18 09:21:41;;;;;;;7.50;2.10;;;;;;;20.91;66.30;100546.76;105317;1271;75431;-74
2022/07/18 09:24:59;;;;;;;6.80;2.30;;;;;;;20.62;66.59;100549.31;105138;1271;69788;-74
2022/07/18 09:27:53;;;;;;;6.50;1.70;;;;;;;20.22;67.67;100546.60;105079;1271;72336;-76
2022/07/18 09:30:41;;;;;;;6.90;2.50;;;;;;;19.92;68.94;100551.84;105022;1271;60492;-75
2022/07/18 09:33:29;;;;;;;9.00;2.20;;;;;;;19.65;70.03;100552.02;105036;1271;61329;-74
2022/07/18 09:36:17;;;;;;;8.20;2.50;;;;;;;19.49;70.84;100550.49;105019;1271;74010;-73
2022/07/18 09:39:22;;;;;;;8.00;2.00;;;;;;;19.47;71.47;100551.01;104831;1271;65864;-72
2022/07/18 09:42:16;;;;;;;8.10;2.10;;;;;;;19.45;71.43;100547.69;105060;1271;74812;-72
2022/07/18 09:45:05;;;;;;;6.70;2.10;;;;;;;19.42;71.77;100548.01;105257;1271;61102;-76
2022/07/18 09:48:04;;;;;;;7.50;2.20;;;;;;;19.45;71.47;100550.39;105227;1271;60475;-76
2022/07/18 09:51:05;;;;;;;9.70;1.90;;;;;;;19.45;71.65;100553.86;105231;1271;75299;-76
2022/07/18 09:53:53;;;;;;;7.10;2.30;;;;;;;19.36;71.67;100555.15;105198;1271;66749;-76
2022/07/18 09:56:42;;;;;;;7.70;2.50;;;;;;;19.35;71.65;100552.77;105005;1271;72814;-77
2022/07/18 09:59:31;;;;;;;8.80;2.40;;;;;;;19.59;71.67;100554.16;104985;1271;60576;-77
2022/07/18 10:02:20;;;;;;;9.60;2.50;;;;;;;19.94;70.57;100553.02;105129;1271;61712;-76
2022/07/18 10:05:10;;;;;;;9.10;2.70;;;;;;;20.33;69.19;100549.86;104975;1271;72055;-76
2022/07/18 10:08:01;;;;;;;8.10;2.60;;;;;;;20.80;67.58;100546.38;105034;1271;69568;-76
2022/07/18 10:10:52;;;;;;;7.60;2.40;;;;;;;21.01;65.78;100551.98;104929;1271;74399;-77
2022/07/18 10:13:40;;;;;;;9.60;2.70;;;;;;;20.92;65.91;100549.30;105403;1271;60427;-78
2022/07/18 10:16:28;;;;;;;8.00;2.50;;;;;;;20.91;66.46;100553.62;105451;1271;60438;-75
2022/07/18 10:19:17;;;;;;;8.20;2.60;;;;;;;21.07;65.51;100554.48;105168;1271;73745;-74
2022/07/18 10:22:07;;;;;;;7.80;2.60;;;;;;;21.21;64.95;100555.15;105011;1271;68078;-74
2022/07/18 10:24:55;;;;;;;7.80;2.50;;;;;;;21.38;64.57;100556.57;105489;1271;72620;-76
2022/07/18 10:27:52;;;;;;;7.40;2.50;;;;;;;21.47;63.06;100557.23;105077;1271;60484;-76
2022/07/18 10:30:47;;;;;;;8.30;2.80;;;;;;;21.59;61.97;100558.16;105409;1271;60501;-76
2022/07/18 10:33:41;;;;;;;8.10;2.30;;;;;;;21.47;62.22;100558.82;105330;1271;74904;-74
2022/07/18 10:36:29;;;;;;;10.50;2.40;;;;;;;21.27;62.64;100561.10;105115;1271;67968;-76
2022/07/18 10:39:21;;;;;;;7.60;2.50;;;;;;;21.44;63.14;100559.01;105367;1271;72807;-76
2022/07/18 10:42:08;;;;;;;8.80;2.40;;;;;;;22.18;60.86;100555.55;105007;1271;60669;-76
2022/07/18 10:44:57;;;;;;;8.00;2.30;;;;;;;22.67;59.36;100543.06;105082;1271;60327;-74
2022/07/18 10:47:46;;;;;;;9.20;2.30;;;;;;;22.72;57.89;100542.55;104964;1271;75488;-74
2022/07/18 10:51:13;;;;;;;7.90;2.30;;;;;;;22.54;58.04;100547.77;105429;1271;67814;-76
2022/07/18 10:54:01;;;;;;;9.60;2.80;;;;;;;22.28;58.94;100556.39;105204;1271;71315;-75
2022/07/18 10:56:55;;;;;;;8.00;2.00;;;;;;;22.19;59.10;100555.74;105054;1271;60439;-74
2022/07/18 11:00:08;;;;;;;7.50;2.00;;;;;;;21.91;59.43;100553.02;105119;1271;61110;-73
2022/07/18 11:03:10;;;;;;;8.20;2.60;;;;;;;21.52;60.51;100555.48;105097;1271;75078;-75
2022/07/18 11:05:59;;;;;;;7.80;2.40;;;;;;;21.36;61.30;100557.33;105005;1271;69141;-76
2022/07/18 11:08:47;;;;;;;7.50;2.20;;;;;;;21.22;61.84;100560.41;105120;1271;74653;-76
2022/07/18 11:11:35;;;;;;;8.10;2.10;;;;;;;22.30;59.39;100557.59;105023;1271;60506;-77
2022/07/18 11:14:59;;;;;;;7.60;2.10;;;;;;;22.53;58.64;100550.30;105249;1271;60626;-73
2022/07/18 11:17:56;;;;;;;6.90;2.00;;;;;;;22.83;58.56;100540.86;105562;1271;74099;-74
2022/07/18 11:20:49;;;;;;;8.00;2.00;;;;;;;22.73;56.95;100541.53;105101;1271;67851;-75
2022/07/18 11:23:46;;;;;;;7.10;2.00;;;;;;;22.31;57.37;100545.97;105390;1271;71627;-76
2022/07/18 11:26:37;;;;;;;8.10;2.00;;;;;;;22.06;58.49;100547.36;105089;1271;60348;-76
2022/07/18 11:29:25;;;;;;;8.50;2.20;;;;;;;22.02;58.83;100545.38;104997;1271;61016;-75
2022/07/18 11:32:20;;;;;;;7.00;2.20;;;;;;;21.80;59.34;100549.55;105345;1271;74999;-76
2022/07/18 11:35:09;;;;;;;7.70;2.50;;;;;;;21.86;59.69;100547.61;104976;1271;69545;-77
2022/07/18 11:38:04;;;;;;;7.10;1.90;;;;;;;22.39;58.16;100542.01;105015;1271;71819;-77
2022/07/18 11:40:53;;;;;;;6.90;2.00;;;;;;;23.20;56.93;100538.86;105138;1271;60446;-75
2022/07/18 11:43:45;;;;;;;6.10;1.90;;;;;;;23.91;54.29;100529.17;105141;1271;60492;-75
2022/07/18 11:46:33;;;;;;;7.10;1.60;;;;;;;24.02;52.54;100526.02;105083;1271;75599;-77
2022/07/18 11:49:21;;;;;;;7.10;1.50;;;;;;;24.13;52.19;100522.29;105400;1271;68012;-74
2022/07/18 11:52:09;;;;;;;10.00;1.80;;;;;;;24.14;52.21;100520.92;105007;1271;72484;-74
2022/07/18 11:55:00;;;;;;;6.70;1.50;;;;;;;23.97;52.89;100528.07;105104;1271;60453;-74
2022/07/18 11:57:48;;;;;;;7.80;1.90;;;;;;;23.77;53.12;100529.66;105153;1271;60628;-75
2022/07/18 12:00:41;;;;;;;9.40;1.80;;;;;;;23.74;53.24;100532.35;105086;1271;73891;-75
2022/07/18 12:03:30;;;;;;;6.00;1.80;;;;;;;23.71;52.70;100526.39;105153;1271;68668;-75
2022/07/18 12:06:22;;;;;;;6.60;1.50;;;;;;;23.57;53.71;100532.48;105151;1271;73414;-76
2022/07/18 12:09:11;;;;;;;8.00;1.70;;;;;;;23.70;53.40;100533.56;105107;1271;60896;-75
2022/07/18 12:12:11;;;;;;;6.80;1.40;;;;;;;23.89;52.93;100528.79;105263;1271;60556;-73
2022/07/18 12:15:09;;;;;;;7.80;1.70;;;;;;;24.23;51.80;100520.02;105082;1271;74103;-75
2022/07/18 12:17:58;;;;;;;6.10;1.60;;;;;;;24.28;51.41;100517.77;105424;1271;65800;-74
2022/07/18 12:20:47;;;;;;;6.20;1.50;;;;;;;24.10;51.53;100515.76;105162;1271;73464;-77
2022/07/18 12:23:35;;;;;;;6.20;1.40;;;;;;;23.97;51.63;100518.99;105005;1271;60435;-76
2022/07/18 12:26:32;;;;;;;6.50;1.60;;;;;;;23.92;51.12;100521.04;105349;1271;60494;-74
2022/07/18 12:30:05;;;;;;;7.80;1.50;;;;;;;23.73;51.25;100520.67;105692;1271;74091;-73
2022/07/18 12:33:00;;;;;;;5.30;1.20;;;;;;;23.60;51.58;100524.21;106953;1271;66599;-73
2022/07/18 12:36:00;;;;;;;5.80;1.40;;;;;;;23.56;52.43;100525.37;106637;1271;74381;-73
2022/07/18 12:39:01;;;;;;;5.80;1.40;;;;;;;23.43;52.58;100524.65;106483;1271;60538;-75
2022/07/18 12:41:49;;;;;;;6.30;1.50;;;;;;;23.43;52.67;100522.64;105668;1271;61069;-75
2022/07/18 12:44:37;;;;;;;6.00;1.30;;;;;;;23.54;52.81;100519.57;105386;1271;74035;-74
2022/07/18 12:47:31;;;;;;;5.70;1.40;;;;;;;23.64;52.60;100518.52;105326;1271;66504;-75
2022/07/18 12:50:19;;;;;;;5.70;1.60;;;;;;;23.64;52.19;100516.38;105155;1271;72837;-77
2022/07/18 12:53:08;;;;;;;6.10;1.30;;;;;;;23.63;52.32;100513.56;105195;1271;60504;-75
2022/07/18 12:55:58;;;;;;;5.50;1.40;;;;;;;23.66;52.55;100516.90;105261;1271;60536;-75
2022/07/18 12:58:46;;;;;;;9.10;1.40;;;;;;;23.80;53.01;100511.80;105360;1271;72736;-75
2022/07/18 13:01:34;;;;;;;4.40;1.10;;;;;;;24.02;52.07;100506.02;105228;1271;68894;-75
2022/07/18 13:04:23;;;;;;;8.40;1.60;;;;;;;24.10;51.52;100510.10;105070;1271;73987;-74